Aviation Digital Data Service (ADDS)

Output produced by METARs form (2335 UTC 30 October 2014)
found at http://aviationweather.gov/adds/metars/
 
KARA 302320Z 3100/3124 VRB03KT P6SM SKC 
     FM311500 35012G24KT P6SM SKC